Time;durP1;ratioP1;P1;durP2;ratioP2;P2;SDS_P1;SDS_P2;PMS_P1;PMS_P2;Temp;Humidity;BMP_temperature;BMP_pressure;BME280_temperature;BME280_humidity;BME280_pressure;Samples;Min_cycle;Max_cycle;Signal;HPM_P1;HPM_P2
2023/05/29 00:01:45;;;;;;;11.70;6.38;;;20.20;99.90;;;;;;5090854;28;20020;-61
2023/05/29 00:04:11;;;;;;;11.00;7.20;;;20.20;99.90;;;;;;5091012;28;20028;-62
2023/05/29 00:06:38;;;;;;;9.50;6.57;;;20.20;99.90;;;;;;5090918;28;20036;-61
2023/05/29 00:09:04;;;;;;;8.65;6.80;;;20.30;99.90;;;;;;5090853;28;20062;-62
2023/05/29 00:11:29;;;;;;;8.98;6.63;;;20.30;99.90;;;;;;5094665;28;20028;-61
2023/05/29 00:13:56;;;;;;;8.38;6.60;;;20.20;99.90;;;;;;5094402;28;20111;-62
2023/05/29 00:16:23;;;;;;;11.68;7.05;;;20.20;99.90;;;;;;5094672;28;20038;-62
2023/05/29 00:18:49;;;;;;;9.18;6.95;;;20.10;99.90;;;;;;5094638;28;20502;-61
2023/05/29 00:21:15;;;;;;;9.55;6.88;;;20.10;99.90;;;;;;5094550;28;20095;-62
2023/05/29 00:23:41;;;;;;;10.95;7.07;;;20.00;99.90;;;;;;5094946;28;20020;-62
2023/05/29 00:26:07;;;;;;;11.15;7.70;;;19.90;99.90;;;;;;5094592;28;20115;-62
2023/05/29 00:28:34;;;;;;;8.88;7.05;;;19.90;99.90;;;;;;5094226;28;20158;-62
2023/05/29 00:31:00;;;;;;;12.93;8.48;;;19.90;99.90;;;;;;5094350;28;20467;-62
2023/05/29 00:33:26;;;;;;;10.35;8.23;;;19.90;99.90;;;;;;5094739;28;20099;-62
2023/05/29 00:35:52;;;;;;;10.00;8.05;;;19.80;99.90;;;;;;5094106;28;20059;-61
2023/05/29 00:38:17;;;;;;;10.23;8.25;;;19.80;99.90;;;;;;5094426;28;20024;-62
2023/05/29 00:40:43;;;;;;;12.02;8.07;;;19.70;99.90;;;;;;5094265;28;20529;-62
2023/05/29 00:43:09;;;;;;;12.15;8.75;;;19.70;99.90;;;;;;5093926;28;20028;-62
2023/05/29 00:45:36;;;;;;;11.15;8.70;;;19.70;99.90;;;;;;5094231;28;20028;-62
2023/05/29 00:48:03;;;;;;;10.13;8.65;;;19.70;99.90;;;;;;5094266;28;20024;-61
2023/05/29 00:50:29;;;;;;;12.02;9.52;;;19.60;99.90;;;;;;5094317;28;20023;-62
2023/05/29 00:52:55;;;;;;;11.88;9.50;;;19.60;99.90;;;;;;5094187;28;20092;-62
2023/05/29 00:55:22;;;;;;;12.20;9.55;;;19.50;99.90;;;;;;5093813;28;20040;-62
2023/05/29 00:57:49;;;;;;;12.75;10.20;;;19.50;99.90;;;;;;5093534;28;20027;-61
2023/05/29 01:00:15;;;;;;;10.90;9.80;;;19.50;99.90;;;;;;5093849;28;20039;-63
2023/05/29 01:02:44;;;;;;;12.88;10.70;;;19.50;99.90;;;;;;5093867;28;20099;-62
2023/05/29 01:05:14;;;;;;;12.88;10.77;;;19.40;99.90;;;;;;5094075;28;20028;-62
2023/05/29 01:07:41;;;;;;;11.20;10.10;;;19.30;99.90;;;;;;5093820;28;20048;-62
2023/05/29 01:10:08;;;;;;;11.38;10.32;;;19.30;99.90;;;;;;5093625;28;20486;-62
2023/05/29 01:12:57;;;;;;;13.13;11.05;;;19.30;99.90;;;;;;5093552;28;20056;-62
2023/05/29 01:15:41;;;;;;;12.52;11.30;;;19.30;99.90;;;;;;5093827;28;20077;-62
2023/05/29 01:18:19;;;;;;;11.90;10.75;;;19.30;99.90;;;;;;5093849;28;20109;-62
2023/05/29 01:21:00;;;;;;;12.32;10.88;;;19.20;99.90;;;;;;5093518;28;20031;-62
2023/05/29 01:24:01;;;;;;;12.98;10.93;;;19.20;99.90;;;;;;5093481;28;20016;-62
2023/05/29 01:26:53;;;;;;;12.68;11.13;;;19.20;99.90;;;;;;5050493;28;20037;-62
2023/05/29 01:29:23;;;;;;;12.90;11.05;;;19.20;99.90;;;;;;5050793;28;20041;-62
2023/05/29 01:31:51;;;;;;;12.68;11.40;;;19.20;99.90;;;;;;5050946;28;20479;-62
2023/05/29 01:34:17;;;;;;;12.75;11.45;;;19.10;99.90;;;;;;5050704;28;20463;-62
2023/05/29 01:36:42;;;;;;;12.40;11.10;;;19.10;99.90;;;;;;5050412;28;20060;-62
2023/05/29 01:39:10;;;;;;;13.55;11.68;;;19.00;99.90;;;;;;5050923;28;20032;-62
2023/05/29 01:41:36;;;;;;;13.70;11.23;;;19.00;99.90;;;;;;5049874;28;20060;-62
2023/05/29 01:44:08;;;;;;;13.35;11.43;;;19.00;99.90;;;;;;5050542;28;20025;-62
2023/05/29 01:46:35;;;;;;;13.88;11.52;;;18.90;99.90;;;;;;5050852;28;20122;-62
2023/05/29 01:49:02;;;;;;;13.52;11.32;;;18.90;99.90;;;;;;5050423;28;20462;-62
2023/05/29 01:51:28;;;;;;;12.90;11.48;;;18.90;99.90;;;;;;5050440;28;20431;-61
2023/05/29 01:53:53;;;;;;;13.23;11.82;;;18.90;99.90;;;;;;5050243;28;20044;-62
2023/05/29 01:56:20;;;;;;;12.77;11.57;;;18.90;99.90;;;;;;5050101;28;20064;-62
2023/05/29 01:58:46;;;;;;;13.10;11.23;;;18.90;99.90;;;;;;5050628;28;20021;-62
2023/05/29 02:01:12;;;;;;;12.98;11.68;;;18.90;99.90;;;;;;5068712;28;20121;-62
2023/05/29 02:03:38;;;;;;;15.85;12.15;;;18.90;99.90;;;;;;5072539;28;20028;-62
2023/05/29 02:06:03;;;;;;;13.98;11.85;;;18.80;99.90;;;;;;5072371;28;20437;-62
2023/05/29 02:08:29;;;;;;;14.77;11.93;;;18.70;99.90;;;;;;5072547;28;20557;-61
2023/05/29 02:10:55;;;;;;;14.10;11.55;;;18.60;99.90;;;;;;5072029;28;20119;-62
2023/05/29 02:13:21;;;;;;;11.05;9.88;;;18.60;99.90;;;;;;5072352;28;20067;-62
2023/05/29 02:15:47;;;;;;;12.52;9.75;;;18.50;99.90;;;;;;5072407;28;20124;-62
2023/05/29 02:18:14;;;;;;;10.88;9.23;;;18.60;99.90;;;;;;5072048;28;20487;-62
2023/05/29 02:20:41;;;;;;;12.07;9.05;;;18.50;99.90;;;;;;5072038;28;20481;-62
2023/05/29 02:23:10;;;;;;;12.52;9.43;;;18.40;99.90;;;;;;5071932;28;20423;-62
2023/05/29 02:25:35;;;;;;;10.45;8.57;;;18.40;99.90;;;;;;5071692;28;20040;-62
2023/05/29 02:28:02;;;;;;;9.27;8.30;;;18.30;99.90;;;;;;5071818;28;20426;-61
2023/05/29 02:30:28;;;;;;;9.50;8.50;;;18.30;99.90;;;;;;5076111;28;20418;-62
2023/05/29 02:32:54;;;;;;;11.25;8.75;;;18.20;99.90;;;;;;5091471;28;20020;-62
2023/05/29 02:35:22;;;;;;;10.55;8.38;;;18.20;99.90;;;;;;5092020;28;20043;-62
2023/05/29 02:37:51;;;;;;;10.57;8.20;;;18.20;99.90;;;;;;5091938;28;20040;-62
2023/05/29 02:40:17;;;;;;;10.98;8.30;;;18.10;99.90;;;;;;5091904;28;20490;-62
2023/05/29 02:42:43;;;;;;;9.57;7.40;;;18.10;99.90;;;;;;5092051;28;20016;-61
2023/05/29 02:45:09;;;;;;;11.70;7.63;;;18.00;99.90;;;;;;5091971;28;20055;-62
2023/05/29 02:47:36;;;;;;;10.93;7.70;;;18.00;99.90;;;;;;5091908;28;20054;-61
2023/05/29 02:50:02;;;;;;;8.52;7.40;;;17.90;99.90;;;;;;5091872;28;20111;-62
2023/05/29 02:52:30;;;;;;;9.68;7.32;;;17.90;99.90;;;;;;5091642;28;20043;-62
2023/05/29 02:54:55;;;;;;;8.13;7.32;;;17.90;99.90;;;;;;5091409;28;20036;-62
2023/05/29 02:57:22;;;;;;;9.70;7.00;;;17.90;99.90;;;;;;5091996;28;20038;-62
2023/05/29 02:59:47;;;;;;;10.50;7.07;;;17.80;99.90;;;;;;5091690;28;20024;-61
2023/05/29 03:02:13;;;;;;;10.02;7.60;;;17.80;99.90;;;;;;5091693;28;20035;-62
2023/05/29 03:04:39;;;;;;;9.57;7.53;;;17.80;99.90;;;;;;5091607;28;20510;-62
2023/05/29 03:07:04;;;;;;;8.40;7.50;;;17.70;99.90;;;;;;5091409;28;20402;-61
2023/05/29 03:09:30;;;;;;;12.13;7.50;;;17.70;99.90;;;;;;5091173;28;20039;-61
2023/05/29 03:11:56;;;;;;;10.02;7.57;;;17.60;99.90;;;;;;5091914;28;20043;-62
2023/05/29 03:14:21;;;;;;;9.30;7.22;;;17.60;99.90;;;;;;5091601;28;20020;-61
2023/05/29 03:16:49;;;;;;;10.65;7.78;;;17.60;99.90;;;;;;5090140;28;20039;-61
2023/05/29 03:19:15;;;;;;;9.35;7.07;;;17.60;99.90;;;;;;5091281;28;20020;-62
2023/05/29 03:21:40;;;;;;;10.32;6.85;;;17.50;99.90;;;;;;5091359;28;20142;-61
2023/05/29 03:24:06;;;;;;;8.15;7.00;;;17.50;99.90;;;;;;5091496;28;20038;-61
2023/05/29 03:26:32;;;;;;;11.13;7.25;;;17.50;99.90;;;;;;5091438;28;20024;-62
2023/05/29 03:28:57;;;;;;;10.48;6.85;;;17.50;99.90;;;;;;5091251;28;20028;-62
2023/05/29 03:31:23;;;;;;;8.50;7.05;;;17.50;99.90;;;;;;5091210;28;20479;-62
2023/05/29 03:33:49;;;;;;;8.32;6.65;;;17.40;99.90;;;;;;5091672;28;20486;-61
2023/05/29 03:36:16;;;;;;;10.93;6.85;;;17.40;99.90;;;;;;5090807;28;20518;-62
2023/05/29 03:38:43;;;;;;;7.88;6.90;;;17.40;99.90;;;;;;5090842;28;20027;-62
2023/05/29 03:41:09;;;;;;;9.82;7.13;;;17.40;99.90;;;;;;5091134;28;20032;-62
2023/05/29 03:43:36;;;;;;;8.98;7.03;;;17.40;99.90;;;;;;5091660;28;20494;-62
2023/05/29 03:46:01;;;;;;;9.35;6.75;;;17.40;99.90;;;;;;5095065;28;20024;-62
2023/05/29 03:48:27;;;;;;;9.80;7.47;;;17.30;99.90;;;;;;5094968;28;20020;-62
2023/05/29 03:50:53;;;;;;;8.50;6.85;;;17.30;99.90;;;;;;5093701;28;20110;-62
2023/05/29 03:53:19;;;;;;;9.27;7.10;;;17.30;99.90;;;;;;5095294;28;20028;-62
2023/05/29 03:55:44;;;;;;;8.60;6.85;;;17.30;99.90;;;;;;5095086;28;20517;-62
2023/05/29 03:58:12;;;;;;;8.80;6.85;;;17.30;99.90;;;;;;5093906;28;20384;-61
2023/05/29 04:00:38;;;;;;;8.98;6.85;;;17.20;99.90;;;;;;5095326;28;20020;-62
2023/05/29 04:03:04;;;;;;;7.57;6.75;;;17.20;99.90;;;;;;5094842;28;20487;-61
2023/05/29 04:05:30;;;;;;;9.05;6.40;;;17.20;99.90;;;;;;5094993;28;20039;-62
2023/05/29 04:07:56;;;;;;;9.18;6.53;;;17.10;99.90;;;;;;5094504;28;20028;-62
2023/05/29 04:10:23;;;;;;;8.07;7.28;;;17.10;99.90;;;;;;5095246;28;20028;-61
2023/05/29 04:12:49;;;;;;;8.68;6.63;;;17.10;99.90;;;;;;5094850;28;20424;-62
2023/05/29 04:15:14;;;;;;;8.40;6.30;;;17.10;99.90;;;;;;5094664;28;20035;-62
2023/05/29 04:17:40;;;;;;;8.43;6.70;;;17.10;99.90;;;;;;5094786;28;20544;-60
2023/05/29 04:20:08;;;;;;;9.80;6.60;;;17.10;99.90;;;;;;5094407;28;20024;-62
2023/05/29 04:22:37;;;;;;;8.38;6.60;;;17.10;99.90;;;;;;5094895;28;20032;-62
2023/05/29 04:25:04;;;;;;;7.63;6.88;;;17.10;99.90;;;;;;5094562;28;20101;-62
2023/05/29 04:27:32;;;;;;;8.18;6.60;;;17.00;99.90;;;;;;5094667;28;20039;-62
2023/05/29 04:29:58;;;;;;;8.05;6.43;;;17.00;99.90;;;;;;5094473;28;20433;-62
2023/05/29 04:32:24;;;;;;;8.60;6.22;;;17.00;99.90;;;;;;5094737;28;20032;-61
2023/05/29 04:34:51;;;;;;;9.65;7.22;;;17.00;99.90;;;;;;5094097;28;20032;-62
2023/05/29 04:37:17;;;;;;;7.28;6.43;;;17.00;99.90;;;;;;5093001;28;20444;-62
2023/05/29 04:39:43;;;;;;;10.45;7.10;;;17.00;99.90;;;;;;5094489;28;20043;-62
2023/05/29 04:42:09;;;;;;;8.85;6.50;;;17.00;99.90;;;;;;5094412;28;20024;-62
2023/05/29 04:44:34;;;;;;;10.00;6.68;;;17.00;99.90;;;;;;5094331;28;20032;-65
2023/05/29 04:47:02;;;;;;;9.52;7.13;;;17.00;99.90;;;;;;5094386;28;20032;-62
2023/05/29 04:49:28;;;;;;;8.77;7.05;;;16.90;99.90;;;;;;5093769;28;20067;-62
2023/05/29 04:51:54;;;;;;;8.95;6.85;;;17.00;99.90;;;;;;5094009;28;20081;-61
2023/05/29 04:54:22;;;;;;;7.97;7.18;;;16.90;99.90;;;;;;5094378;28;20506;-62
2023/05/29 04:56:48;;;;;;;8.20;6.70;;;16.90;99.90;;;;;;5093197;28;20039;-62
2023/05/29 04:59:14;;;;;;;7.97;6.90;;;17.00;99.90;;;;;;5094099;28;20021;-62
2023/05/29 05:01:43;;;;;;;8.85;7.38;;;17.00;99.90;;;;;;5093995;28;20031;-62
2023/05/29 05:04:09;;;;;;;9.18;6.90;;;17.00;99.90;;;;;;5093847;28;20483;-62
2023/05/29 05:06:34;;;;;;;8.55;7.18;;;17.00;99.90;;;;;;5093897;28;20042;-61
2023/05/29 05:09:00;;;;;;;9.68;7.45;;;17.00;99.90;;;;;;5093817;28;20391;-62
2023/05/29 05:11:26;;;;;;;11.30;7.53;;;16.90;99.90;;;;;;5093805;28;20091;-61
2023/05/29 05:13:52;;;;;;;8.18;6.75;;;16.90;99.90;;;;;;5094053;28;20028;-61
2023/05/29 05:16:18;;;;;;;8.57;7.50;;;17.00;99.90;;;;;;5093438;28;20032;-62
2023/05/29 05:18:44;;;;;;;10.38;7.15;;;17.00;99.90;;;;;;5093425;28;20020;-65
2023/05/29 05:21:10;;;;;;;9.85;7.15;;;17.00;99.90;;;;;;5093581;28;20036;-62
2023/05/29 05:23:36;;;;;;;8.00;7.20;;;17.00;99.90;;;;;;5093879;28;20020;-62
2023/05/29 05:26:02;;;;;;;8.02;7.22;;;17.00;99.90;;;;;;5093406;28;20031;-62
2023/05/29 05:28:28;;;;;;;9.20;7.30;;;17.00;99.90;;;;;;5093350;28;20016;-62
2023/05/29 05:30:53;;;;;;;9.10;7.45;;;17.10;99.90;;;;;;5093376;28;20570;-62
2023/05/29 05:33:19;;;;;;;8.98;7.47;;;17.10;99.90;;;;;;5093082;28;20024;-62
2023/05/29 05:35:45;;;;;;;9.10;7.38;;;17.10;99.90;;;;;;5093288;28;20064;-62
2023/05/29 05:38:11;;;;;;;9.40;7.53;;;17.10;99.90;;;;;;5093174;28;20394;-61
2023/05/29 05:40:36;;;;;;;8.60;7.47;;;17.10;99.90;;;;;;5093163;28;20032;-62
2023/05/29 05:43:02;;;;;;;10.73;8.20;;;17.20;99.90;;;;;;5093282;28;20017;-63
2023/05/29 05:45:28;;;;;;;10.07;8.25;;;17.20;99.90;;;;;;5093029;28;20039;-62
2023/05/29 05:47:53;;;;;;;8.30;7.40;;;17.20;99.90;;;;;;5092410;28;20024;-62
2023/05/29 05:50:21;;;;;;;8.77;7.95;;;17.30;99.90;;;;;;5092563;28;20080;-62
2023/05/29 05:52:46;;;;;;;10.90;7.78;;;17.30;99.90;;;;;;5091607;28;20521;-61
2023/05/29 05:55:12;;;;;;;8.65;7.78;;;17.30;99.90;;;;;;5091927;28;20036;-62
2023/05/29 05:57:37;;;;;;;8.57;7.80;;;17.30;99.90;;;;;;5092201;28;20103;-62
2023/05/29 06:00:07;;;;;;;9.63;8.02;;;17.30;99.90;;;;;;5092187;28;20079;-63
2023/05/29 06:02:33;;;;;;;9.25;8.20;;;17.40;99.90;;;;;;5092338;28;20517;-63
2023/05/29 06:04:59;;;;;;;8.98;8.07;;;17.40;99.90;;;;;;5092489;28;20123;-63
2023/05/29 06:07:25;;;;;;;9.63;8.27;;;17.40;99.90;;;;;;5091932;28;20402;-63
2023/05/29 06:09:50;;;;;;;10.10;8.07;;;17.50;99.90;;;;;;5092362;28;20108;-62
2023/05/29 06:12:16;;;;;;;11.05;9.00;;;17.50;99.90;;;;;;5092385;28;20028;-63
2023/05/29 06:14:42;;;;;;;9.15;7.95;;;17.50;99.90;;;;;;5092464;28;20051;-63
2023/05/29 06:17:07;;;;;;;10.82;7.97;;;17.60;99.90;;;;;;5092320;28;20028;-62
2023/05/29 06:19:33;;;;;;;9.35;7.60;;;17.60;99.90;;;;;;5092430;28;20028;-63
2023/05/29 06:21:58;;;;;;;8.20;7.40;;;17.70;99.90;;;;;;5092601;28;20024;-63
2023/05/29 06:24:24;;;;;;;9.25;7.45;;;17.80;99.90;;;;;;5092418;28;20482;-63
2023/05/29 06:26:50;;;;;;;8.48;7.65;;;17.90;99.90;;;;;;5092432;28;20066;-63
2023/05/29 06:29:16;;;;;;;8.95;8.02;;;17.90;99.90;;;;;;5092187;28;20073;-63
2023/05/29 06:31:41;;;;;;;9.50;8.13;;;17.90;99.90;;;;;;5090407;28;20501;-63
2023/05/29 06:34:07;;;;;;;11.25;7.90;;;18.10;99.90;;;;;;5092545;28;20027;-63
2023/05/29 06:36:32;;;;;;;8.00;7.22;;;18.10;99.90;;;;;;5091952;28;20052;-62
2023/05/29 06:38:58;;;;;;;9.82;7.88;;;18.20;99.90;;;;;;5092142;28;20055;-63
2023/05/29 06:41:24;;;;;;;11.10;7.55;;;18.20;99.90;;;;;;5092075;28;20028;-63
2023/05/29 06:43:51;;;;;;;10.15;7.93;;;18.30;99.90;;;;;;5091843;28;20048;-62
2023/05/29 06:46:17;;;;;;;10.15;7.85;;;18.30;99.90;;;;;;5091578;28;20035;-62
2023/05/29 06:48:43;;;;;;;8.50;7.68;;;18.40;99.90;;;;;;5092304;28;20034;-62
2023/05/29 06:51:11;;;;;;;9.90;7.85;;;18.40;99.90;;;;;;5091866;28;20028;-62
2023/05/29 06:53:40;;;;;;;7.68;6.97;;;18.50;99.90;;;;;;5091865;28;20459;-63
2023/05/29 06:56:06;;;;;;;10.30;7.65;;;18.50;99.90;;;;;;5091735;28;20518;-62
2023/05/29 06:58:33;;;;;;;7.82;7.13;;;18.60;99.90;;;;;;5092018;28;20042;-63
2023/05/29 07:00:59;;;;;;;8.05;6.78;;;18.70;99.90;;;;;;5091578;28;20024;-62
2023/05/29 07:03:28;;;;;;;8.18;6.85;;;18.70;99.90;;;;;;5090427;28;20394;-63
2023/05/29 07:05:55;;;;;;;8.05;7.10;;;18.80;99.90;;;;;;5091652;28;20028;-61
2023/05/29 07:08:20;;;;;;;8.30;6.88;;;18.80;99.90;;;;;;5091436;28;20032;-63
2023/05/29 07:10:48;;;;;;;10.35;7.03;;;18.90;99.90;;;;;;5092037;28;20406;-62
2023/05/29 07:13:16;;;;;;;8.75;6.88;;;19.00;99.90;;;;;;5091630;28;20028;-62
2023/05/29 07:15:42;;;;;;;7.50;6.70;;;19.00;99.90;;;;;;5090930;28;20066;-63
2023/05/29 07:18:07;;;;;;;7.40;6.68;;;19.00;99.90;;;;;;5091080;28;20040;-62
2023/05/29 07:20:33;;;;;;;9.32;6.90;;;19.20;99.90;;;;;;5091493;28;20020;-63
2023/05/29 07:22:59;;;;;;;8.35;6.38;;;19.20;99.90;;;;;;5091808;28;20024;-62
2023/05/29 07:25:26;;;;;;;10.18;6.85;;;19.30;99.90;;;;;;5091484;28;20026;-62
2023/05/29 07:27:51;;;;;;;6.80;6.03;;;19.40;99.90;;;;;;5091162;28;20042;-62
2023/05/29 07:30:18;;;;;;;10.25;7.30;;;19.50;99.90;;;;;;5090992;28;20016;-63
2023/05/29 07:32:43;;;;;;;7.90;6.38;;;19.50;99.90;;;;;;5091494;28;20099;-62
2023/05/29 07:35:09;;;;;;;7.80;7.00;;;19.60;99.90;;;;;;5091560;28;20585;-63
2023/05/29 07:37:35;;;;;;;8.70;6.32;;;19.70;99.90;;;;;;5090984;28;20550;-62
2023/05/29 07:40:01;;;;;;;8.90;6.70;;;19.80;99.90;;;;;;5091051;28;20059;-62
2023/05/29 07:42:27;;;;;;;9.55;6.30;;;19.90;99.90;;;;;;5091114;28;20055;-62
2023/05/29 07:44:52;;;;;;;8.27;7.38;;;20.00;99.90;;;;;;5091280;28;20585;-63
2023/05/29 07:47:18;;;;;;;8.73;6.75;;;20.00;99.90;;;;;;5091187;28;20024;-61
2023/05/29 07:49:44;;;;;;;7.63;6.93;;;20.20;99.90;;;;;;5091120;28;20418;-62
2023/05/29 07:52:10;;;;;;;8.13;7.15;;;20.20;99.90;;;;;;5090721;28;20059;-62
2023/05/29 07:54:36;;;;;;;11.13;7.07;;;20.30;99.90;;;;;;5091444;28;20127;-62
2023/05/29 07:57:09;;;;;;;8.40;7.57;;;20.50;99.90;;;;;;5090943;28;20522;-62
2023/05/29 07:59:40;;;;;;;12.13;7.88;;;20.60;99.90;;;;;;5090566;28;20028;-62
2023/05/29 08:02:06;;;;;;;12.13;8.70;;;20.60;99.90;;;;;;5091129;28;20028;-63
2023/05/29 08:04:32;;;;;;;10.50;7.88;;;20.60;99.90;;;;;;5091003;28;20157;-61
2023/05/29 08:07:03;;;;;;;10.52;7.80;;;20.70;99.90;;;;;;5091323;28;20027;-61
2023/05/29 08:09:29;;;;;;;10.85;8.27;;;20.70;99.90;;;;;;5090923;28;20020;-63
2023/05/29 08:11:55;;;;;;;16.02;8.45;;;20.80;99.90;;;;;;5091039;28;20028;-62
2023/05/29 08:14:20;;;;;;;11.10;8.52;;;20.80;99.90;;;;;;5091002;28;20028;-61
2023/05/29 08:16:46;;;;;;;15.07;8.57;;;20.90;99.90;;;;;;5090890;28;20383;-62
2023/05/29 08:19:12;;;;;;;14.00;8.88;;;21.00;99.90;;;;;;5090929;28;20023;-62
2023/05/29 08:21:38;;;;;;;11.25;8.63;;;21.00;99.90;;;;;;5091292;28;20089;-61
2023/05/29 08:24:06;;;;;;;10.90;9.02;;;21.10;99.90;;;;;;5090791;28;20017;-62
2023/05/29 08:26:32;;;;;;;11.57;8.55;;;21.10;99.90;;;;;;5090884;28;20454;-63
2023/05/29 08:28:58;;;;;;;9.60;8.60;;;21.10;99.90;;;;;;5090345;28;20156;-62
2023/05/29 08:31:27;;;;;;;9.55;8.57;;;21.20;99.90;;;;;;5093119;28;20107;-62
2023/05/29 08:33:53;;;;;;;9.25;8.10;;;21.30;99.90;;;;;;5094674;28;20085;-62
2023/05/29 08:36:22;;;;;;;10.50;7.88;;;21.30;99.90;;;;;;5094231;28;20052;-62
2023/05/29 08:38:50;;;;;;;9.82;7.47;;;21.30;99.90;;;;;;5093469;28;20032;-61
2023/05/29 08:41:46;;;;;;;9.95;7.82;;;21.40;99.90;;;;;;5093083;28;20039;-62
2023/05/29 08:44:14;;;;;;;8.38;7.30;;;21.60;99.90;;;;;;5094002;28;20043;-62
2023/05/29 08:46:40;;;;;;;10.88;8.50;;;21.60;99.90;;;;;;5094397;28;20031;-62
2023/05/29 08:49:08;;;;;;;11.05;7.72;;;21.60;99.90;;;;;;5094267;28;20111;-62
2023/05/29 08:51:38;;;;;;;8.77;7.80;;;21.70;99.90;;;;;;5094215;28;20032;-62
2023/05/29 08:54:04;;;;;;;29.38;9.60;;;21.70;99.90;;;;;;5093999;28;20055;-60
2023/05/29 08:56:31;;;;;;;14.98;9.38;;;21.70;99.90;;;;;;5093767;28;20036;-62
2023/05/29 08:58:57;;;;;;;15.95;8.20;;;21.90;99.90;;;;;;5094352;28;20020;-62
2023/05/29 09:01:24;;;;;;;13.13;8.70;;;22.00;99.90;;;;;;5092834;28;20051;-62
2023/05/29 09:03:50;;;;;;;8.73;7.82;;;22.00;99.90;;;;;;5094020;28;20051;-62
2023/05/29 09:06:17;;;;;;;12.15;7.63;;;22.10;99.90;;;;;;5093850;28;20478;-62
2023/05/29 09:08:43;;;;;;;10.35;7.50;;;22.10;99.90;;;;;;5093925;28;20378;-62
2023/05/29 09:11:09;;;;;;;9.90;7.25;;;22.20;99.90;;;;;;5093794;28;20032;-62
2023/05/29 09:13:35;;;;;;;11.60;7.80;;;22.20;99.90;;;;;;5092455;28;20020;-62
2023/05/29 09:16:04;;;;;;;12.45;8.88;;;22.30;99.90;;;;;;5093684;28;20044;-63
2023/05/29 09:18:31;;;;;;;10.23;9.20;;;22.40;99.90;;;;;;5093597;28;20052;-62
2023/05/29 09:20:58;;;;;;;15.77;9.55;;;22.30;99.90;;;;;;5093829;28;20083;-62
2023/05/29 09:23:25;;;;;;;10.52;9.35;;;22.20;99.90;;;;;;5093575;28;20051;-63
2023/05/29 09:25:53;;;;;;;13.57;9.45;;;22.10;99.90;;;;;;5092346;28;20028;-62
2023/05/29 09:28:20;;;;;;;13.20;9.68;;;22.10;99.90;;;;;;5093272;28;20025;-61
2023/05/29 09:30:47;;;;;;;14.95;9.90;;;22.10;99.90;;;;;;5093365;28;20070;-63
2023/05/29 09:33:14;;;;;;;14.68;9.40;;;22.00;99.90;;;;;;5093668;28;20471;-63
2023/05/29 09:35:42;;;;;;;40.53;11.52;;;22.00;99.90;;;;;;5093119;28;20090;-64
2023/05/29 09:38:09;;;;;;;16.13;10.40;;;22.20;99.90;;;;;;5093223;28;20531;-63
2023/05/29 09:40:40;;;;;;;17.05;10.52;;;22.20;99.90;;;;;;5093322;28;20115;-63
2023/05/29 09:43:09;;;;;;;15.00;10.40;;;22.20;99.90;;;;;;5092328;28;20035;-64
2023/05/29 09:45:41;;;;;;;11.57;10.25;;;22.20;99.90;;;;;;5092929;28;20016;-64
2023/05/29 09:48:12;;;;;;;37.83;12.67;;;22.10;99.90;;;;;;5092726;28;20020;-63
2023/05/29 09:50:38;;;;;;;12.48;10.77;;;22.20;99.90;;;;;;5092980;28;20012;-63
2023/05/29 09:53:19;;;;;;;11.50;10.20;;;22.20;99.90;;;;;;5092808;28;20115;-63
2023/05/29 09:55:50;;;;;;;14.05;11.50;;;22.20;99.90;;;;;;5092426;28;20027;-63
2023/05/29 09:58:17;;;;;;;16.67;11.65;;;22.20;99.90;;;;;;5092939;28;20023;-63
2023/05/29 10:00:43;;;;;;;15.95;11.68;;;22.30;99.90;;;;;;5090350;28;20456;-63
2023/05/29 10:03:11;;;;;;;12.43;11.13;;;22.40;99.90;;;;;;5080962;28;20119;-63
2023/05/29 10:05:41;;;;;;;15.13;11.70;;;22.50;99.90;;;;;;5072591;28;20407;-63
2023/05/29 10:08:13;;;;;;;17.80;11.85;;;22.60;99.90;;;;;;5072473;28;20483;-63
2023/05/29 10:10:46;;;;;;;16.80;11.93;;;22.60;99.90;;;;;;5072655;28;20078;-63
2023/05/29 10:13:13;;;;;;;15.85;12.40;;;22.60;99.90;;;;;;5072498;28;20048;-63
2023/05/29 10:15:42;;;;;;;15.60;11.23;;;22.60;99.90;;;;;;5072347;28;20502;-63
2023/05/29 10:18:23;;;;;;;18.30;12.15;;;22.70;99.90;;;;;;5072350;28;20605;-63
2023/05/29 10:20:56;;;;;;;22.40;12.25;;;22.70;99.90;;;;;;5072204;28;20025;-63
2023/05/29 10:23:24;;;;;;;17.90;11.77;;;22.80;99.90;;;;;;5071775;28;20483;-63
2023/05/29 10:25:59;;;;;;;17.38;11.48;;;22.90;99.90;;;;;;5071988;28;20259;-63
2023/05/29 10:28:25;;;;;;;17.42;11.88;;;23.00;99.90;;;;;;5072212;28;20410;-63
2023/05/29 10:31:09;;;;;;;14.93;11.80;;;22.90;99.90;;;;;;5078945;28;20035;-63
2023/05/29 10:34:02;;;;;;;14.90;11.82;;;23.00;99.90;;;;;;5081455;28;20502;-62
2023/05/29 10:36:35;;;;;;;15.63;11.93;;;23.00;99.90;;;;;;5080337;28;20063;-63
2023/05/29 10:39:01;;;;;;;17.17;11.07;;;23.10;99.90;;;;;;5088259;28;20123;-62
2023/05/29 10:41:32;;;;;;;12.82;10.95;;;23.20;99.90;;;;;;5090029;28;20158;-63
2023/05/29 10:44:21;;;;;;;14.63;10.90;;;23.40;99.90;;;;;;5084167;28;20029;-62
2023/05/29 10:46:50;;;;;;;16.60;11.30;;;23.50;99.90;;;;;;5092209;28;20020;-62
2023/05/29 10:49:20;;;;;;;13.98;10.95;;;23.50;99.90;;;;;;5091803;28;20032;-62
2023/05/29 10:51:46;;;;;;;19.88;10.88;;;23.60;99.90;;;;;;5091518;28;20028;-61
2023/05/29 10:54:16;;;;;;;17.95;10.52;;;23.70;99.90;;;;;;5091070;28;20398;-62
2023/05/29 10:56:45;;;;;;;20.00;11.40;;;23.90;99.90;;;;;;5091897;28;20059;-61
2023/05/29 10:59:11;;;;;;;14.02;10.32;;;23.90;99.90;;;;;;5087623;28;20042;-62
2023/05/29 11:01:38;;;;;;;13.73;11.05;;;24.00;99.90;;;;;;5092047;28;20039;-62
2023/05/29 11:04:25;;;;;;;14.45;10.23;;;24.10;99.90;;;;;;5091528;28;20028;-61
2023/05/29 11:06:52;;;;;;;19.73;10.98;;;24.30;99.90;;;;;;5091375;28;20394;-61
2023/05/29 11:09:30;;;;;;;14.23;10.40;;;24.40;99.90;;;;;;5091656;28;20455;-61
2023/05/29 11:12:11;;;;;;;15.48;10.15;;;24.30;99.90;;;;;;5091952;28;20397;-60
2023/05/29 11:14:47;;;;;;;14.40;10.27;;;24.20;99.90;;;;;;5090884;28;20059;-62
2023/05/29 11:17:39;;;;;;;19.33;10.85;;;24.10;99.90;;;;;;5090075;28;20454;-61
2023/05/29 11:20:35;;;;;;;17.95;11.02;;;24.10;99.90;;;;;;5091076;28;20035;-62
2023/05/29 11:23:07;;;;;;;17.42;11.18;;;24.00;99.90;;;;;;5087816;28;20587;-62
2023/05/29 11:25:35;;;;;;;21.60;11.23;;;24.00;99.90;;;;;;5091633;28;20028;-62
2023/05/29 11:28:03;;;;;;;20.23;11.63;;;23.80;99.90;;;;;;5091377;28;20081;-62
2023/05/29 11:30:29;;;;;;;17.40;10.68;;;23.80;99.90;;;;;;5091199;28;20024;-62
2023/05/29 11:33:01;;;;;;;17.35;11.40;;;23.90;99.90;;;;;;5091184;28;20058;-63
2023/05/29 11:35:30;;;;;;;17.75;11.35;;;23.80;99.90;;;;;;5090574;28;20040;-61
2023/05/29 11:37:57;;;;;;;18.40;10.60;;;23.80;99.90;;;;;;5089431;28;20058;-62
2023/05/29 11:40:23;;;;;;;19.10;11.23;;;23.80;99.90;;;;;;5070831;28;20020;-62
2023/05/29 11:42:49;;;;;;;23.50;11.35;;;23.90;99.90;;;;;;5069891;28;20519;-62
2023/05/29 11:45:19;;;;;;;18.95;11.02;;;24.00;99.90;;;;;;5071117;28;20099;-62
2023/05/29 11:47:58;;;;;;;18.10;11.00;;;23.90;99.90;;;;;;5070828;28;20048;-62
2023/05/29 11:50:26;;;;;;;17.63;10.50;;;24.00;99.90;;;;;;5070437;28;20033;-62
2023/05/29 11:52:52;;;;;;;15.38;10.02;;;23.90;99.90;;;;;;5071083;28;20032;-62
2023/05/29 11:55:22;;;;;;;18.98;11.25;;;24.10;99.90;;;;;;5070689;28;20032;-62
2023/05/29 11:57:48;;;;;;;20.38;10.32;;;23.90;99.90;;;;;;5072291;28;20482;-62
2023/05/29 12:00:18;;;;;;;16.08;10.68;;;23.90;99.90;;;;;;5089134;28;20062;-62
2023/05/29 12:02:46;;;;;;;20.80;10.63;;;24.00;99.90;;;;;;5083643;28;20027;-62
2023/05/29 12:05:15;;;;;;;20.02;10.82;;;24.00;99.90;;;;;;5080341;28;20024;-62
2023/05/29 12:07:51;;;;;;;20.27;11.32;;;24.00;99.90;;;;;;5094950;28;20162;-62
2023/05/29 12:10:19;;;;;;;16.60;10.95;;;24.10;99.90;;;;;;5081020;28;20033;-61
2023/05/29 12:12:56;;;;;;;18.85;10.68;;;24.10;99.90;;;;;;5084546;28;20027;-62
2023/05/29 12:15:22;;;;;;;17.33;10.80;;;24.00;99.90;;;;;;5074549;28;20029;-62
2023/05/29 12:17:49;;;;;;;16.48;10.13;;;24.00;99.90;;;;;;5074208;28;20024;-63
2023/05/29 12:20:16;;;;;;;18.33;10.50;;;24.10;99.90;;;;;;5073932;28;20386;-63
2023/05/29 12:22:44;;;;;;;19.55;10.27;;;24.20;99.90;;;;;;5074507;28;20642;-63
2023/05/29 12:25:17;;;;;;;17.27;10.80;;;24.30;99.90;;;;;;5074250;28;20020;-62
2023/05/29 12:27:46;;;;;;;21.23;10.52;;;24.40;99.90;;;;;;5072892;28;20025;-63
2023/05/29 12:30:14;;;;;;;14.05;9.73;;;24.50;99.90;;;;;;5076324;28;20068;-62
2023/05/29 12:32:45;;;;;;;17.15;10.45;;;24.50;99.90;;;;;;5094475;28;20679;-63
2023/05/29 12:35:12;;;;;;;18.40;10.27;;;24.60;99.90;;;;;;5093183;28;20498;-63
2023/05/29 12:37:46;;;;;;;19.23;10.52;;;24.60;99.90;;;;;;5094135;28;20042;-63
2023/05/29 12:40:19;;;;;;;16.50;9.98;;;24.60;99.90;;;;;;5094373;28;20036;-62
2023/05/29 12:42:48;;;;;;;;;;;24.60;99.90;;;;;;5094764;28;20032;-63